Terminal Aerodrome Forecast
Issued by NWS Green Bay, WI

Home | Current Version | Previous Version | Graphics & Text | Print | Product List | Glossary On
Versions: 1 2 3 4 5 6 7 8 9 10 11 12 13 14 15 16 17 18 19 20 21 22 23 24 25 26 27 28 29 30 31 32 33 34 35 36 37 38 39 40 41 42 43 44 45 46 47 48
000
FTUS43 KGRB 251524 AAC
TAFGRB
TAF AMD
KGRB 251524Z 2515/2612 05009KT P6SM OVC006
     FM251800 08011G17KT P6SM SCT100 BKN200
     FM260000 10007KT 6SM -SHRA BR BKN035 OVC100
      TEMPO 2601/2605 2SM +TSRA BKN008 OVC020CB
     FM260700 17005KT 2SM BR SCT006 BKN012=

USA.gov is the U.S. government's official web portal to all federal, state and local government web resources and services.